sensor_id;sensor_type;location;lat;lon;timestamp;P1;durP1;ratioP1;P2;durP2;ratioP2
77449;SDS011;66536;53.150;18.172;2023-10-09T00:01:43;7.70;;;3.10;;
77449;SDS011;66536;53.150;18.172;2023-10-09T00:04:10;9.50;;;3.80;;
77449;SDS011;66536;53.150;18.172;2023-10-09T00:06:39;7.60;;;3.30;;
77449;SDS011;66536;53.150;18.172;2023-10-09T00:09:08;10.40;;;4.00;;
77449;SDS011;66536;53.150;18.172;2023-10-09T00:11:56;8.20;;;3.60;;
77449;SDS011;66536;53.150;18.172;2023-10-09T00:14:24;9.30;;;3.50;;
77449;SDS011;66536;53.150;18.172;2023-10-09T00:16:51;13.10;;;3.70;;
77449;SDS011;66536;53.150;18.172;2023-10-09T00:19:28;9.70;;;3.50;;
77449;SDS011;66536;53.150;18.172;2023-10-09T00:21:57;7.50;;;3.10;;
77449;SDS011;66536;53.150;18.172;2023-10-09T00:24:26;10.20;;;3.90;;
77449;SDS011;66536;53.150;18.172;2023-10-09T00:26:54;9.10;;;3.60;;
77449;SDS011;66536;53.150;18.172;2023-10-09T00:29:27;7.20;;;3.00;;
77449;SDS011;66536;53.150;18.172;2023-10-09T00:32:00;10.60;;;3.40;;
77449;SDS011;66536;53.150;18.172;2023-10-09T00:34:39;8.50;;;3.10;;
77449;SDS011;66536;53.150;18.172;2023-10-09T00:37:06;8.00;;;3.40;;
77449;SDS011;66536;53.150;18.172;2023-10-09T00:39:36;7.90;;;3.10;;
77449;SDS011;66536;53.150;18.172;2023-10-09T00:42:09;7.50;;;3.40;;
77449;SDS011;66536;53.150;18.172;2023-10-09T00:44:57;9.00;;;3.20;;
77449;SDS011;66536;53.150;18.172;2023-10-09T00:47:28;8.90;;;3.20;;
77449;SDS011;66536;53.150;18.172;2023-10-09T00:50:02;8.40;;;3.20;;
77449;SDS011;66536;53.150;18.172;2023-10-09T00:52:45;9.30;;;3.40;;
77449;SDS011;66536;53.150;18.172;2023-10-09T00:55:18;8.30;;;3.90;;
77449;SDS011;66536;53.150;18.172;2023-10-09T00:57:53;7.80;;;4.00;;
77449;SDS011;66536;53.150;18.172;2023-10-09T01:00:25;8.90;;;3.60;;
77449;SDS011;66536;53.150;18.172;2023-10-09T01:03:12;11.10;;;3.90;;
77449;SDS011;66536;53.150;18.172;2023-10-09T01:05:54;6.90;;;3.50;;
77449;SDS011;66536;53.150;18.172;2023-10-09T01:08:24;8.50;;;3.60;;
77449;SDS011;66536;53.150;18.172;2023-10-09T01:10:57;8.70;;;3.20;;
77449;SDS011;66536;53.150;18.172;2023-10-09T01:13:34;7.50;;;3.40;;
77449;SDS011;66536;53.150;18.172;2023-10-09T01:16:13;10.70;;;3.60;;
77449;SDS011;66536;53.150;18.172;2023-10-09T01:18:42;7.10;;;3.20;;
77449;SDS011;66536;53.150;18.172;2023-10-09T01:21:16;9.30;;;3.80;;
77449;SDS011;66536;53.150;18.172;2023-10-09T01:23:44;9.00;;;3.70;;
77449;SDS011;66536;53.150;18.172;2023-10-09T01:26:21;8.10;;;3.80;;
77449;SDS011;66536;53.150;18.172;2023-10-09T01:28:48;13.70;;;4.40;;
77449;SDS011;66536;53.150;18.172;2023-10-09T01:31:14;9.70;;;3.70;;
77449;SDS011;66536;53.150;18.172;2023-10-09T01:33:40;10.40;;;4.00;;
77449;SDS011;66536;53.150;18.172;2023-10-09T01:36:07;12.80;;;4.50;;
77449;SDS011;66536;53.150;18.172;2023-10-09T01:38:39;8.20;;;3.40;;
77449;SDS011;66536;53.150;18.172;2023-10-09T01:41:07;9.30;;;3.70;;
77449;SDS011;66536;53.150;18.172;2023-10-09T01:43:41;10.10;;;3.20;;
77449;SDS011;66536;53.150;18.172;2023-10-09T01:46:11;8.40;;;3.20;;
77449;SDS011;66536;53.150;18.172;2023-10-09T01:48:37;10.60;;;3.80;;
77449;SDS011;66536;53.150;18.172;2023-10-09T01:51:05;7.40;;;3.20;;
77449;SDS011;66536;53.150;18.172;2023-10-09T01:53:34;7.60;;;3.40;;
77449;SDS011;66536;53.150;18.172;2023-10-09T01:56:11;7.80;;;3.10;;
77449;SDS011;66536;53.150;18.172;2023-10-09T01:58:41;7.30;;;3.30;;
77449;SDS011;66536;53.150;18.172;2023-10-09T02:01:12;8.30;;;3.50;;
77449;SDS011;66536;53.150;18.172;2023-10-09T02:03:40;7.20;;;3.20;;
77449;SDS011;66536;53.150;18.172;2023-10-09T02:06:09;11.10;;;3.70;;
77449;SDS011;66536;53.150;18.172;2023-10-09T02:08:45;10.70;;;3.70;;
77449;SDS011;66536;53.150;18.172;2023-10-09T02:11:15;9.10;;;3.60;;
77449;SDS011;66536;53.150;18.172;2023-10-09T02:13:50;6.70;;;3.10;;
77449;SDS011;66536;53.150;18.172;2023-10-09T02:16:26;9.60;;;3.30;;
77449;SDS011;66536;53.150;18.172;2023-10-09T02:18:55;8.50;;;3.30;;
77449;SDS011;66536;53.150;18.172;2023-10-09T02:21:24;9.30;;;3.90;;
77449;SDS011;66536;53.150;18.172;2023-10-09T02:24:02;7.50;;;2.90;;
77449;SDS011;66536;53.150;18.172;2023-10-09T02:26:31;11.30;;;3.60;;
77449;SDS011;66536;53.150;18.172;2023-10-09T02:29:17;7.70;;;3.70;;
77449;SDS011;66536;53.150;18.172;2023-10-09T02:31:45;8.80;;;4.40;;
77449;SDS011;66536;53.150;18.172;2023-10-09T02:34:17;8.90;;;4.10;;
77449;SDS011;66536;53.150;18.172;2023-10-09T02:36:47;9.60;;;4.10;;
77449;SDS011;66536;53.150;18.172;2023-10-09T02:39:15;8.60;;;3.40;;
77449;SDS011;66536;53.150;18.172;2023-10-09T02:41:49;8.20;;;3.30;;
77449;SDS011;66536;53.150;18.172;2023-10-09T02:44:18;7.60;;;3.30;;
77449;SDS011;66536;53.150;18.172;2023-10-09T02:46:50;11.30;;;3.90;;
77449;SDS011;66536;53.150;18.172;2023-10-09T02:49:16;7.80;;;2.80;;
77449;SDS011;66536;53.150;18.172;2023-10-09T02:51:42;7.70;;;3.20;;
77449;SDS011;66536;53.150;18.172;2023-10-09T02:54:18;7.60;;;3.10;;
77449;SDS011;66536;53.150;18.172;2023-10-09T02:56:52;7.10;;;2.90;;
77449;SDS011;66536;53.150;18.172;2023-10-09T02:59:35;6.30;;;3.00;;
77449;SDS011;66536;53.150;18.172;2023-10-09T03:02:04;10.30;;;4.20;;
77449;SDS011;66536;53.150;18.172;2023-10-09T03:04:30;8.00;;;3.90;;
77449;SDS011;66536;53.150;18.172;2023-10-09T03:06:57;11.20;;;4.10;;
77449;SDS011;66536;53.150;18.172;2023-10-09T03:09:24;10.50;;;3.60;;
77449;SDS011;66536;53.150;18.172;2023-10-09T03:11:55;7.90;;;3.70;;
77449;SDS011;66536;53.150;18.172;2023-10-09T03:14:36;9.70;;;3.40;;
77449;SDS011;66536;53.150;18.172;2023-10-09T03:17:07;8.70;;;3.40;;
77449;SDS011;66536;53.150;18.172;2023-10-09T03:19:41;9.00;;;4.50;;
77449;SDS011;66536;53.150;18.172;2023-10-09T03:22:10;13.20;;;4.40;;
77449;SDS011;66536;53.150;18.172;2023-10-09T03:24:37;8.60;;;4.00;;
77449;SDS011;66536;53.150;18.172;2023-10-09T03:27:07;10.10;;;4.60;;
77449;SDS011;66536;53.150;18.172;2023-10-09T03:29:33;8.80;;;5.00;;
77449;SDS011;66536;53.150;18.172;2023-10-09T03:31:59;9.80;;;4.60;;
77449;SDS011;66536;53.150;18.172;2023-10-09T03:34:26;8.60;;;4.10;;
77449;SDS011;66536;53.150;18.172;2023-10-09T03:36:52;6.90;;;3.50;;
77449;SDS011;66536;53.150;18.172;2023-10-09T03:39:30;8.20;;;3.60;;
77449;SDS011;66536;53.150;18.172;2023-10-09T03:42:06;7.10;;;3.30;;
77449;SDS011;66536;53.150;18.172;2023-10-09T03:44:35;8.60;;;3.90;;
77449;SDS011;66536;53.150;18.172;2023-10-09T03:47:07;8.50;;;3.40;;
77449;SDS011;66536;53.150;18.172;2023-10-09T03:49:36;9.70;;;4.00;;
77449;SDS011;66536;53.150;18.172;2023-10-09T03:52:05;7.40;;;3.30;;
77449;SDS011;66536;53.150;18.172;2023-10-09T03:54:32;8.10;;;3.70;;
77449;SDS011;66536;53.150;18.172;2023-10-09T03:57:01;7.70;;;3.60;;
77449;SDS011;66536;53.150;18.172;2023-10-09T03:59:27;9.30;;;3.50;;
77449;SDS011;66536;53.150;18.172;2023-10-09T04:01:57;7.00;;;3.40;;
77449;SDS011;66536;53.150;18.172;2023-10-09T04:04:24;7.30;;;3.30;;
77449;SDS011;66536;53.150;18.172;2023-10-09T04:06:50;6.10;;;3.10;;
77449;SDS011;66536;53.150;18.172;2023-10-09T04:09:17;11.20;;;3.90;;
77449;SDS011;66536;53.150;18.172;2023-10-09T04:11:53;8.80;;;3.80;;
77449;SDS011;66536;53.150;18.172;2023-10-09T04:14:30;9.20;;;3.90;;
77449;SDS011;66536;53.150;18.172;2023-10-09T04:17:00;7.90;;;3.60;;
77449;SDS011;66536;53.150;18.172;2023-10-09T04:19:36;10.50;;;4.20;;
77449;SDS011;66536;53.150;18.172;2023-10-09T04:22:14;9.90;;;4.20;;
77449;SDS011;66536;53.150;18.172;2023-10-09T04:24:52;16.20;;;4.90;;
77449;SDS011;66536;53.150;18.172;2023-10-09T04:27:18;11.50;;;4.40;;
77449;SDS011;66536;53.150;18.172;2023-10-09T04:29:54;10.90;;;4.20;;
77449;SDS011;66536;53.150;18.172;2023-10-09T04:32:20;10.40;;;4.50;;
77449;SDS011;66536;53.150;18.172;2023-10-09T04:35:09;13.50;;;6.30;;
77449;SDS011;66536;53.150;18.172;2023-10-09T04:37:47;13.30;;;5.60;;
77449;SDS011;66536;53.150;18.172;2023-10-09T04:40:18;24.50;;;12.40;;
77449;SDS011;66536;53.150;18.172;2023-10-09T04:43:04;25.90;;;12.90;;
77449;SDS011;66536;53.150;18.172;2023-10-09T04:45:36;13.40;;;6.90;;
77449;SDS011;66536;53.150;18.172;2023-10-09T04:48:17;11.30;;;5.10;;
77449;SDS011;66536;53.150;18.172;2023-10-09T04:50:59;9.60;;;4.20;;
77449;SDS011;66536;53.150;18.172;2023-10-09T04:53:36;10.20;;;4.70;;
77449;SDS011;66536;53.150;18.172;2023-10-09T04:56:10;7.50;;;3.60;;
77449;SDS011;66536;53.150;18.172;2023-10-09T04:58:41;8.20;;;3.00;;
77449;SDS011;66536;53.150;18.172;2023-10-09T05:01:09;7.00;;;2.30;;
77449;SDS011;66536;53.150;18.172;2023-10-09T05:03:39;7.70;;;2.10;;
77449;SDS011;66536;53.150;18.172;2023-10-09T05:06:10;7.70;;;2.80;;
77449;SDS011;66536;53.150;18.172;2023-10-09T05:08:48;5.60;;;2.50;;
77449;SDS011;66536;53.150;18.172;2023-10-09T05:11:14;9.10;;;2.90;;
77449;SDS011;66536;53.150;18.172;2023-10-09T05:14:00;13.00;;;3.30;;
77449;SDS011;66536;53.150;18.172;2023-10-09T05:16:37;9.70;;;3.60;;
77449;SDS011;66536;53.150;18.172;2023-10-09T05:19:20;7.60;;;3.90;;
77449;SDS011;66536;53.150;18.172;2023-10-09T05:21:55;11.70;;;5.50;;
77449;SDS011;66536;53.150;18.172;2023-10-09T05:24:34;7.60;;;3.30;;
77449;SDS011;66536;53.150;18.172;2023-10-09T05:27:10;7.00;;;3.10;;
77449;SDS011;66536;53.150;18.172;2023-10-09T05:29:44;4.70;;;2.20;;
77449;SDS011;66536;53.150;18.172;2023-10-09T05:32:20;7.70;;;3.50;;
77449;SDS011;66536;53.150;18.172;2023-10-09T05:35:07;11.60;;;5.00;;
77449;SDS011;66536;53.150;18.172;2023-10-09T05:37:42;14.50;;;7.30;;
77449;SDS011;66536;53.150;18.172;2023-10-09T05:40:09;8.50;;;3.60;;
77449;SDS011;66536;53.150;18.172;2023-10-09T05:42:51;7.70;;;2.70;;
77449;SDS011;66536;53.150;18.172;2023-10-09T05:45:26;6.70;;;3.00;;
77449;SDS011;66536;53.150;18.172;2023-10-09T05:48:03;9.50;;;3.60;;
77449;SDS011;66536;53.150;18.172;2023-10-09T05:50:49;11.90;;;4.50;;
77449;SDS011;66536;53.150;18.172;2023-10-09T05:53:25;19.60;;;9.60;;
77449;SDS011;66536;53.150;18.172;2023-10-09T05:56:11;8.00;;;3.60;;
77449;SDS011;66536;53.150;18.172;2023-10-09T05:58:48;6.30;;;2.40;;
77449;SDS011;66536;53.150;18.172;2023-10-09T06:01:24;4.30;;;1.70;;
77449;SDS011;66536;53.150;18.172;2023-10-09T06:04:10;5.90;;;2.20;;
77449;SDS011;66536;53.150;18.172;2023-10-09T06:06:44;18.20;;;7.90;;
77449;SDS011;66536;53.150;18.172;2023-10-09T06:09:12;11.50;;;3.20;;
77449;SDS011;66536;53.150;18.172;2023-10-09T06:11:56;5.40;;;2.00;;
77449;SDS011;66536;53.150;18.172;2023-10-09T06:14:43;9.10;;;4.60;;
77449;SDS011;66536;53.150;18.172;2023-10-09T06:17:23;13.90;;;6.10;;
77449;SDS011;66536;53.150;18.172;2023-10-09T06:19:50;8.90;;;3.80;;
77449;SDS011;66536;53.150;18.172;2023-10-09T06:22:24;8.10;;;3.50;;
77449;SDS011;66536;53.150;18.172;2023-10-09T06:25:00;6.90;;;3.10;;
77449;SDS011;66536;53.150;18.172;2023-10-09T06:27:34;6.30;;;2.70;;
77449;SDS011;66536;53.150;18.172;2023-10-09T06:30:20;7.60;;;2.70;;
77449;SDS011;66536;53.150;18.172;2023-10-09T06:32:52;5.90;;;2.50;;
77449;SDS011;66536;53.150;18.172;2023-10-09T06:35:34;20.20;;;3.80;;
77449;SDS011;66536;53.150;18.172;2023-10-09T06:38:05;21.80;;;3.60;;
77449;SDS011;66536;53.150;18.172;2023-10-09T06:40:46;15.70;;;3.00;;
77449;SDS011;66536;53.150;18.172;2023-10-09T06:43:23;14.60;;;4.20;;
77449;SDS011;66536;53.150;18.172;2023-10-09T06:45:55;21.10;;;8.80;;
77449;SDS011;66536;53.150;18.172;2023-10-09T06:48:41;12.10;;;4.90;;
77449;SDS011;66536;53.150;18.172;2023-10-09T06:51:10;7.80;;;3.70;;
77449;SDS011;66536;53.150;18.172;2023-10-09T06:53:48;9.90;;;3.30;;
77449;SDS011;66536;53.150;18.172;2023-10-09T06:56:24;7.40;;;2.80;;
77449;SDS011;66536;53.150;18.172;2023-10-09T06:59:11;22.80;;;3.40;;
77449;SDS011;66536;53.150;18.172;2023-10-09T07:01:48;18.10;;;3.10;;
77449;SDS011;66536;53.150;18.172;2023-10-09T07:04:35;9.00;;;3.00;;
77449;SDS011;66536;53.150;18.172;2023-10-09T07:07:18;13.80;;;3.30;;
77449;SDS011;66536;53.150;18.172;2023-10-09T07:09:50;17.70;;;5.00;;
77449;SDS011;66536;53.150;18.172;2023-10-09T07:12:27;16.30;;;8.40;;
77449;SDS011;66536;53.150;18.172;2023-10-09T07:14:53;10.30;;;5.60;;
77449;SDS011;66536;53.150;18.172;2023-10-09T07:17:39;9.20;;;4.00;;
77449;SDS011;66536;53.150;18.172;2023-10-09T07:20:11;8.50;;;3.30;;
77449;SDS011;66536;53.150;18.172;2023-10-09T07:23:04;11.50;;;3.60;;
77449;SDS011;66536;53.150;18.172;2023-10-09T07:25:47;18.50;;;9.80;;
77449;SDS011;66536;53.150;18.172;2023-10-09T07:28:22;13.40;;;5.70;;
77449;SDS011;66536;53.150;18.172;2023-10-09T07:31:04;8.00;;;3.20;;
77449;SDS011;66536;53.150;18.172;2023-10-09T07:33:34;9.60;;;4.00;;
77449;SDS011;66536;53.150;18.172;2023-10-09T07:36:10;12.70;;;4.10;;
77449;SDS011;66536;53.150;18.172;2023-10-09T07:38:38;11.00;;;3.70;;
77449;SDS011;66536;53.150;18.172;2023-10-09T07:41:04;9.10;;;3.70;;
77449;SDS011;66536;53.150;18.172;2023-10-09T07:43:50;9.80;;;4.40;;
77449;SDS011;66536;53.150;18.172;2023-10-09T07:46:22;12.20;;;4.90;;
77449;SDS011;66536;53.150;18.172;2023-10-09T07:49:00;8.50;;;4.10;;
77449;SDS011;66536;53.150;18.172;2023-10-09T07:51:38;11.80;;;3.50;;
77449;SDS011;66536;53.150;18.172;2023-10-09T07:54:09;11.10;;;4.60;;
77449;SDS011;66536;53.150;18.172;2023-10-09T07:56:41;18.70;;;7.60;;
77449;SDS011;66536;53.150;18.172;2023-10-09T07:59:11;10.50;;;5.00;;
77449;SDS011;66536;53.150;18.172;2023-10-09T08:01:43;15.00;;;4.60;;
77449;SDS011;66536;53.150;18.172;2023-10-09T08:04:23;14.00;;;6.40;;
77449;SDS011;66536;53.150;18.172;2023-10-09T08:07:03;10.70;;;4.80;;
77449;SDS011;66536;53.150;18.172;2023-10-09T08:09:33;16.30;;;5.00;;
77449;SDS011;66536;53.150;18.172;2023-10-09T08:12:09;11.80;;;4.70;;
77449;SDS011;66536;53.150;18.172;2023-10-09T08:14:45;13.90;;;6.00;;
77449;SDS011;66536;53.150;18.172;2023-10-09T08:17:14;18.40;;;7.30;;
77449;SDS011;66536;53.150;18.172;2023-10-09T08:19:42;15.30;;;6.10;;
77449;SDS011;66536;53.150;18.172;2023-10-09T08:22:32;16.10;;;5.60;;
77449;SDS011;66536;53.150;18.172;2023-10-09T08:25:10;13.70;;;6.20;;
77449;SDS011;66536;53.150;18.172;2023-10-09T08:27:46;14.00;;;5.70;;
77449;SDS011;66536;53.150;18.172;2023-10-09T08:30:21;10.60;;;4.40;;
77449;SDS011;66536;53.150;18.172;2023-10-09T08:33:07;7.10;;;3.50;;
77449;SDS011;66536;53.150;18.172;2023-10-09T08:35:45;8.80;;;4.40;;
77449;SDS011;66536;53.150;18.172;2023-10-09T08:38:13;9.30;;;4.00;;
77449;SDS011;66536;53.150;18.172;2023-10-09T08:40:40;8.60;;;4.30;;
77449;SDS011;66536;53.150;18.172;2023-10-09T08:43:10;8.00;;;3.70;;
77449;SDS011;66536;53.150;18.172;2023-10-09T08:45:46;50.30;;;27.30;;
77449;SDS011;66536;53.150;18.172;2023-10-09T08:48:27;13.00;;;5.90;;
77449;SDS011;66536;53.150;18.172;2023-10-09T08:50:55;10.00;;;3.80;;
77449;SDS011;66536;53.150;18.172;2023-10-09T08:53:25;9.80;;;4.40;;
77449;SDS011;66536;53.150;18.172;2023-10-09T08:55:53;10.10;;;4.60;;
77449;SDS011;66536;53.150;18.172;2023-10-09T08:58:20;8.10;;;3.70;;
77449;SDS011;66536;53.150;18.172;2023-10-09T09:00:54;10.20;;;4.30;;
77449;SDS011;66536;53.150;18.172;2023-10-09T09:03:21;11.90;;;4.50;;
77449;SDS011;66536;53.150;18.172;2023-10-09T09:06:00;9.50;;;3.50;;
77449;SDS011;66536;53.150;18.172;2023-10-09T09:08:28;7.30;;;3.20;;
77449;SDS011;66536;53.150;18.172;2023-10-09T09:10:57;7.80;;;3.10;;
77449;SDS011;66536;53.150;18.172;2023-10-09T09:13:40;10.50;;;3.30;;
77449;SDS011;66536;53.150;18.172;2023-10-09T09:16:16;8.00;;;3.20;;
77449;SDS011;66536;53.150;18.172;2023-10-09T09:18:50;8.40;;;3.70;;
77449;SDS011;66536;53.150;18.172;2023-10-09T09:21:18;6.00;;;2.90;;
77449;SDS011;66536;53.150;18.172;2023-10-09T09:23:55;11.90;;;4.20;;
77449;SDS011;66536;53.150;18.172;2023-10-09T09:26:32;6.50;;;3.00;;
77449;SDS011;66536;53.150;18.172;2023-10-09T09:29:09;7.30;;;3.00;;
77449;SDS011;66536;53.150;18.172;2023-10-09T09:31:35;9.10;;;3.40;;
77449;SDS011;66536;53.150;18.172;2023-10-09T09:34:04;7.60;;;3.80;;
77449;SDS011;66536;53.150;18.172;2023-10-09T09:39:21;8.40;;;3.10;;
77449;SDS011;66536;53.150;18.172;2023-10-09T09:41:54;7.20;;;3.00;;
77449;SDS011;66536;53.150;18.172;2023-10-09T09:44:22;14.20;;;5.00;;
77449;SDS011;66536;53.150;18.172;2023-10-09T09:46:52;12.00;;;5.60;;
77449;SDS011;66536;53.150;18.172;2023-10-09T09:49:22;6.90;;;4.10;;
77449;SDS011;66536;53.150;18.172;2023-10-09T09:51:49;11.50;;;4.30;;
77449;SDS011;66536;53.150;18.172;2023-10-09T09:54:15;9.80;;;4.20;;
77449;SDS011;66536;53.150;18.172;2023-10-09T09:56:43;21.70;;;10.70;;
77449;SDS011;66536;53.150;18.172;2023-10-09T09:59:18;12.50;;;5.30;;
77449;SDS011;66536;53.150;18.172;2023-10-09T10:01:48;7.90;;;4.10;;
77449;SDS011;66536;53.150;18.172;2023-10-09T10:04:26;17.80;;;5.70;;
77449;SDS011;66536;53.150;18.172;2023-10-09T10:06:55;8.30;;;3.90;;
77449;SDS011;66536;53.150;18.172;2023-10-09T10:12:07;13.50;;;4.40;;
77449;SDS011;66536;53.150;18.172;2023-10-09T10:18:16;9.30;;;4.00;;
77449;SDS011;66536;53.150;18.172;2023-10-09T10:20:59;10.70;;;3.80;;
77449;SDS011;66536;53.150;18.172;2023-10-09T10:23:45;9.80;;;6.00;;
77449;SDS011;66536;53.150;18.172;2023-10-09T10:26:18;8.40;;;4.60;;
77449;SDS011;66536;53.150;18.172;2023-10-09T10:31:52;9.20;;;4.70;;
77449;SDS011;66536;53.150;18.172;2023-10-09T10:34:20;13.40;;;4.70;;
77449;SDS011;66536;53.150;18.172;2023-10-09T10:36:51;12.30;;;5.00;;
77449;SDS011;66536;53.150;18.172;2023-10-09T10:39:24;9.80;;;4.80;;
77449;SDS011;66536;53.150;18.172;2023-10-09T10:42:03;9.10;;;4.30;;
77449;SDS011;66536;53.150;18.172;2023-10-09T10:44:32;12.70;;;5.30;;
77449;SDS011;66536;53.150;18.172;2023-10-09T10:47:05;15.90;;;6.20;;
77449;SDS011;66536;53.150;18.172;2023-10-09T10:49:49;21.60;;;7.50;;
77449;SDS011;66536;53.150;18.172;2023-10-09T10:52:24;16.50;;;5.30;;
77449;SDS011;66536;53.150;18.172;2023-10-09T10:55:09;10.50;;;5.00;;
77449;SDS011;66536;53.150;18.172;2023-10-09T10:58:16;11.10;;;4.90;;
77449;SDS011;66536;53.150;18.172;2023-10-09T11:00:51;16.40;;;5.20;;
77449;SDS011;66536;53.150;18.172;2023-10-09T11:03:37;46.60;;;23.90;;
77449;SDS011;66536;53.150;18.172;2023-10-09T11:06:28;22.30;;;9.90;;
77449;SDS011;66536;53.150;18.172;2023-10-09T11:09:05;15.30;;;7.10;;
77449;SDS011;66536;53.150;18.172;2023-10-09T11:11:36;13.60;;;5.00;;
77449;SDS011;66536;53.150;18.172;2023-10-09T11:14:12;18.80;;;5.40;;
77449;SDS011;66536;53.150;18.172;2023-10-09T11:16:43;10.90;;;5.20;;
77449;SDS011;66536;53.150;18.172;2023-10-09T11:19:14;13.20;;;4.90;;
77449;SDS011;66536;53.150;18.172;2023-10-09T11:22:04;29.70;;;11.00;;
77449;SDS011;66536;53.150;18.172;2023-10-09T11:24:48;12.70;;;5.60;;
77449;SDS011;66536;53.150;18.172;2023-10-09T11:27:35;9.00;;;4.90;;
77449;SDS011;66536;53.150;18.172;2023-10-09T11:30:05;10.30;;;5.00;;
77449;SDS011;66536;53.150;18.172;2023-10-09T11:32:36;12.60;;;4.70;;
77449;SDS011;66536;53.150;18.172;2023-10-09T11:35:13;13.90;;;5.10;;
77449;SDS011;66536;53.150;18.172;2023-10-09T11:37:55;14.90;;;7.00;;
77449;SDS011;66536;53.150;18.172;2023-10-09T11:43:09;13.20;;;5.90;;
77449;SDS011;66536;53.150;18.172;2023-10-09T11:45:39;22.40;;;8.30;;
77449;SDS011;66536;53.150;18.172;2023-10-09T11:48:17;14.30;;;5.70;;
77449;SDS011;66536;53.150;18.172;2023-10-09T11:50:52;15.50;;;6.30;;
77449;SDS011;66536;53.150;18.172;2023-10-09T11:53:40;12.80;;;6.40;;
77449;SDS011;66536;53.150;18.172;2023-10-09T11:56:09;13.70;;;5.70;;
77449;SDS011;66536;53.150;18.172;2023-10-09T11:58:40;18.80;;;4.90;;
77449;SDS011;66536;53.150;18.172;2023-10-09T12:01:13;12.60;;;5.30;;
77449;SDS011;66536;53.150;18.172;2023-10-09T12:03:43;8.10;;;3.90;;
77449;SDS011;66536;53.150;18.172;2023-10-09T12:06:16;10.00;;;4.10;;
77449;SDS011;66536;53.150;18.172;2023-10-09T12:08:45;9.90;;;4.10;;
77449;SDS011;66536;53.150;18.172;2023-10-09T12:11:13;8.90;;;3.80;;
77449;SDS011;66536;53.150;18.172;2023-10-09T12:13:48;9.10;;;3.90;;
77449;SDS011;66536;53.150;18.172;2023-10-09T12:16:22;8.60;;;3.50;;
77449;SDS011;66536;53.150;18.172;2023-10-09T12:18:54;4.80;;;3.10;;
77449;SDS011;66536;53.150;18.172;2023-10-09T12:21:21;5.90;;;3.00;;
77449;SDS011;66536;53.150;18.172;2023-10-09T12:23:49;6.30;;;3.10;;
77449;SDS011;66536;53.150;18.172;2023-10-09T12:26:15;6.80;;;3.40;;
77449;SDS011;66536;53.150;18.172;2023-10-09T12:28:45;5.90;;;3.30;;
77449;SDS011;66536;53.150;18.172;2023-10-09T12:31:15;7.30;;;3.60;;
77449;SDS011;66536;53.150;18.172;2023-10-09T12:33:45;14.00;;;5.70;;
77449;SDS011;66536;53.150;18.172;2023-10-09T12:36:33;8.10;;;4.60;;
77449;SDS011;66536;53.150;18.172;2023-10-09T12:39:02;7.50;;;3.10;;
77449;SDS011;66536;53.150;18.172;2023-10-09T12:41:29;8.70;;;3.50;;
77449;SDS011;66536;53.150;18.172;2023-10-09T12:43:59;4.60;;;2.80;;
77449;SDS011;66536;53.150;18.172;2023-10-09T12:46:25;5.70;;;2.70;;
77449;SDS011;66536;53.150;18.172;2023-10-09T12:48:52;6.90;;;3.20;;
77449;SDS011;66536;53.150;18.172;2023-10-09T12:51:21;5.70;;;2.70;;
77449;SDS011;66536;53.150;18.172;2023-10-09T12:53:55;6.40;;;2.30;;
77449;SDS011;66536;53.150;18.172;2023-10-09T12:56:24;4.90;;;2.30;;
77449;SDS011;66536;53.150;18.172;2023-10-09T12:59:01;4.00;;;2.10;;
77449;SDS011;66536;53.150;18.172;2023-10-09T13:01:30;3.10;;;1.80;;
77449;SDS011;66536;53.150;18.172;2023-10-09T13:03:58;5.20;;;2.70;;
77449;SDS011;66536;53.150;18.172;2023-10-09T13:06:26;9.20;;;3.70;;
77449;SDS011;66536;53.150;18.172;2023-10-09T13:08:53;5.80;;;2.70;;
77449;SDS011;66536;53.150;18.172;2023-10-09T13:11:25;13.60;;;4.90;;
77449;SDS011;66536;53.150;18.172;2023-10-09T13:13:51;6.60;;;2.70;;
77449;SDS011;66536;53.150;18.172;2023-10-09T13:16:20;4.30;;;1.70;;
77449;SDS011;66536;53.150;18.172;2023-10-09T13:18:49;4.60;;;1.60;;
77449;SDS011;66536;53.150;18.172;2023-10-09T13:21:17;9.60;;;3.20;;
77449;SDS011;66536;53.150;18.172;2023-10-09T13:23:48;11.20;;;4.20;;
77449;SDS011;66536;53.150;18.172;2023-10-09T13:26:17;10.50;;;4.00;;
77449;SDS011;66536;53.150;18.172;2023-10-09T13:28:45;7.00;;;3.20;;
77449;SDS011;66536;53.150;18.172;2023-10-09T13:31:13;12.00;;;4.00;;
77449;SDS011;66536;53.150;18.172;2023-10-09T13:33:40;9.60;;;3.30;;
77449;SDS011;66536;53.150;18.172;2023-10-09T13:36:09;2.10;;;1.30;;
77449;SDS011;66536;53.150;18.172;2023-10-09T13:38:46;3.30;;;1.40;;
77449;SDS011;66536;53.150;18.172;2023-10-09T13:41:13;5.00;;;1.40;;
77449;SDS011;66536;53.150;18.172;2023-10-09T13:43:43;2.80;;;1.30;;
77449;SDS011;66536;53.150;18.172;2023-10-09T13:46:12;4.10;;;1.70;;
77449;SDS011;66536;53.150;18.172;2023-10-09T13:48:39;2.50;;;1.30;;
77449;SDS011;66536;53.150;18.172;2023-10-09T13:51:09;4.90;;;1.70;;
77449;SDS011;66536;53.150;18.172;2023-10-09T13:53:40;3.30;;;1.70;;
77449;SDS011;66536;53.150;18.172;2023-10-09T13:56:14;3.80;;;1.90;;
77449;SDS011;66536;53.150;18.172;2023-10-09T13:58:44;3.90;;;1.70;;
77449;SDS011;66536;53.150;18.172;2023-10-09T14:01:16;5.50;;;1.80;;
77449;SDS011;66536;53.150;18.172;2023-10-09T14:03:55;2.40;;;1.50;;
77449;SDS011;66536;53.150;18.172;2023-10-09T14:06:23;4.30;;;2.60;;
77449;SDS011;66536;53.150;18.172;2023-10-09T14:08:57;5.30;;;3.70;;
77449;SDS011;66536;53.150;18.172;2023-10-09T14:11:29;3.40;;;1.70;;
77449;SDS011;66536;53.150;18.172;2023-10-09T14:13:57;4.50;;;1.40;;
77449;SDS011;66536;53.150;18.172;2023-10-09T14:16:27;33.80;;;17.30;;
77449;SDS011;66536;53.150;18.172;2023-10-09T14:18:54;18.20;;;10.00;;
77449;SDS011;66536;53.150;18.172;2023-10-09T14:21:24;5.90;;;3.10;;
77449;SDS011;66536;53.150;18.172;2023-10-09T14:23:53;5.30;;;2.10;;
77449;SDS011;66536;53.150;18.172;2023-10-09T14:26:23;4.30;;;1.90;;
77449;SDS011;66536;53.150;18.172;2023-10-09T14:28:53;6.80;;;2.60;;
77449;SDS011;66536;53.150;18.172;2023-10-09T14:31:23;5.40;;;2.60;;
77449;SDS011;66536;53.150;18.172;2023-10-09T14:33:55;4.80;;;1.80;;
77449;SDS011;66536;53.150;18.172;2023-10-09T14:36:22;6.10;;;2.90;;
77449;SDS011;66536;53.150;18.172;2023-10-09T14:38:50;5.30;;;2.20;;
77449;SDS011;66536;53.150;18.172;2023-10-09T14:41:19;4.60;;;1.90;;
77449;SDS011;66536;53.150;18.172;2023-10-09T14:43:49;4.40;;;2.10;;
77449;SDS011;66536;53.150;18.172;2023-10-09T14:46:16;5.60;;;2.50;;
77449;SDS011;66536;53.150;18.172;2023-10-09T14:48:49;11.40;;;5.80;;
77449;SDS011;66536;53.150;18.172;2023-10-09T14:51:15;9.80;;;4.40;;
77449;SDS011;66536;53.150;18.172;2023-10-09T14:53:41;7.30;;;2.80;;
77449;SDS011;66536;53.150;18.172;2023-10-09T14:56:08;11.80;;;4.90;;
77449;SDS011;66536;53.150;18.172;2023-10-09T14:58:36;14.40;;;5.60;;
77449;SDS011;66536;53.150;18.172;2023-10-09T15:01:08;10.00;;;3.50;;
77449;SDS011;66536;53.150;18.172;2023-10-09T15:03:36;3.90;;;2.00;;
77449;SDS011;66536;53.150;18.172;2023-10-09T15:06:04;5.90;;;2.70;;
77449;SDS011;66536;53.150;18.172;2023-10-09T15:08:36;21.00;;;8.30;;
77449;SDS011;66536;53.150;18.172;2023-10-09T15:11:03;98.90;;;29.30;;
77449;SDS011;66536;53.150;18.172;2023-10-09T15:13:29;108.40;;;32.60;;
77449;SDS011;66536;53.150;18.172;2023-10-09T15:15:56;81.90;;;29.60;;
77449;SDS011;66536;53.150;18.172;2023-10-09T15:18:22;42.40;;;15.80;;